Time;durP1;ratioP1;P1;durP2;ratioP2;P2;SDS_P1;SDS_P2;PMS_P1;PMS_P2;Temp;Humidity;BMP_temperature;BMP_pressure;BME280_temperature;BME280_humidity;BME280_pressure;Samples;Min_cycle;Max_cycle;Signal;HPM_P1;HPM_P2
2022/10/30 00:00:09;;;;;;;23.47;19.00;;;16.20;99.90;;;16.53;96.75;101407.75;4934334;29;20468;-69
2022/10/30 00:02:41;;;;;;;24.67;16.93;;;16.30;99.90;;;16.32;97.88;101408.19;4935265;29;20443;-70
2022/10/30 00:05:10;;;;;;;23.97;17.83;;;16.20;99.90;;;15.96;99.17;101407.13;4934904;29;20415;-70
2022/10/30 00:07:40;;;;;;;30.13;19.20;;;16.00;99.90;;;15.88;100.00;101407.41;4933193;29;20416;-69
2022/10/30 00:10:10;;;;;;;31.37;18.87;;;15.90;99.90;;;15.71;100.00;101403.59;4928394;29;20469;-69
2022/10/30 00:12:39;;;;;;;22.07;16.27;;;15.80;99.90;;;15.81;100.00;101403.91;4931866;29;20788;-68
2022/10/30 00:15:09;;;;;;;24.90;19.40;;;15.70;99.90;;;16.19;100.00;101391.97;4931702;29;21097;-70
2022/10/30 00:17:38;;;;;;;28.00;18.63;;;15.80;99.90;;;15.84;100.00;101402.63;4934261;29;20801;-70
2022/10/30 00:20:09;;;;;;;21.47;16.57;;;15.80;99.90;;;15.63;100.00;101403.88;4934872;29;20866;-69
2022/10/30 00:22:38;;;;;;;22.80;17.73;;;15.60;99.90;;;15.54;100.00;101399.75;4934619;29;20438;-71
2022/10/30 00:25:09;;;;;;;25.10;18.93;;;15.60;99.90;;;15.51;100.00;101394.72;4928572;29;20444;-71
2022/10/30 00:27:38;;;;;;;24.30;16.60;;;15.50;99.90;;;15.37;100.00;101396.72;4935189;29;20501;-70
2022/10/30 00:30:09;;;;;;;23.30;17.83;;;15.40;99.90;;;15.47;100.00;101388.03;4935120;29;20422;-70
2022/10/30 00:32:37;;;;;;;32.97;19.43;;;15.30;99.90;;;15.35;100.00;101382.44;4930936;29;20480;-69
2022/10/30 00:35:07;;;;;;;24.53;19.47;;;15.30;99.90;;;15.35;100.00;101385.16;4926754;29;20448;-69
2022/10/30 00:37:36;;;;;;;22.53;19.40;;;15.30;99.90;;;15.30;100.00;101384.19;4934633;29;20511;-72
2022/10/30 00:40:13;;;;;;;25.10;19.80;;;15.30;99.90;;;15.18;100.00;101386.78;4934762;29;20796;-70
2022/10/30 00:42:44;;;;;;;29.30;20.50;;;15.20;99.90;;;15.36;100.00;101381.41;4934745;29;20499;-70
2022/10/30 00:45:17;;;;;;;24.00;18.23;;;15.20;99.90;;;15.22;100.00;101388.84;4933387;29;20463;-71
2022/10/30 00:47:53;;;;;;;23.73;17.73;;;15.20;99.90;;;15.45;100.00;101384.69;4927716;29;20404;-70
2022/10/30 00:50:27;;;;;;;31.77;20.90;;;15.20;99.90;;;15.69;100.00;101383.03;4927932;29;20860;-70
2022/10/30 00:53:03;;;;;;;29.93;20.33;;;15.40;99.90;;;15.60;100.00;101382.47;4943721;29;20400;-69
2022/10/30 00:55:39;;;;;;;25.17;20.43;;;15.50;99.90;;;15.34;100.00;101375.34;4944489;29;20474;-70
2022/10/30 00:58:15;;;;;;;40.80;20.53;;;15.30;99.90;;;15.35;100.00;101377.00;4944721;29;20450;-72
2022/10/30 01:00:50;;;;;;;23.60;18.83;;;15.30;99.90;;;15.36;100.00;101375.09;4959345;29;20522;-70
2022/10/30 01:03:22;;;;;;;28.23;21.27;;;15.20;99.90;;;15.43;100.00;101365.00;4944586;29;20421;-68
2022/10/30 01:05:57;;;;;;;30.70;22.50;;;15.30;99.90;;;15.16;100.00;101361.63;4941375;29;20545;-70
2022/10/30 01:09:40;;;;;;;40.63;22.50;;;15.10;99.90;;;15.39;100.00;101363.78;4944050;29;20424;-71
2022/10/30 01:12:10;;;;;;;32.57;19.93;;;15.30;99.90;;;16.03;100.00;101358.75;4931385;29;20416;-71
2022/10/30 01:14:43;;;;;;;25.53;17.60;;;15.60;99.90;;;16.52;98.42;101356.91;4914205;29;20782;-71
2022/10/30 01:17:48;;;;;;;34.13;20.40;;;15.90;99.90;;;16.41;97.18;101350.31;4927619;29;20507;-70
2022/10/30 01:20:52;;;;;;;24.63;17.10;;;16.00;1.00;;;16.12;98.16;101361.19;4945234;29;20444;-70
2022/10/30 01:23:37;;;;;;;26.27;19.00;;;15.90;99.90;;;16.03;97.80;101347.81;4918507;29;20411;-69
2022/10/30 01:26:19;;;;;;;25.03;20.27;;;15.90;99.90;;;15.84;98.76;101342.56;4932567;29;20976;-71
2022/10/30 01:29:09;;;;;;;28.07;20.60;;;15.80;99.90;;;15.84;99.89;101337.97;4932428;29;20432;-69
2022/10/30 01:31:57;;;;;;;40.00;20.30;;;15.70;99.90;;;15.56;100.00;101351.25;4932329;29;20438;-70
2022/10/30 01:34:38;;;;;;;27.97;22.10;;;15.50;1.00;;;15.45;100.00;101349.22;4945175;29;20457;-70
2022/10/30 01:37:19;;;;;;;25.80;20.63;;;15.40;1.00;;;16.30;98.37;101348.38;4924112;29;20438;-70
2022/10/30 01:39:48;;;;;;;24.23;19.30;;;15.80;99.90;;;16.38;96.26;101349.94;4948543;29;20486;-69
2022/10/30 01:42:50;;;;;;;30.13;20.27;;;15.90;99.90;;;16.55;94.33;101345.53;4932714;29;20437;-69
2022/10/30 01:45:38;;;;;;;26.73;20.90;;;16.20;1.00;;;15.93;96.07;101341.22;4929205;29;20463;-69
2022/10/30 01:48:38;;;;;;;29.63;21.20;;;16.00;18.40;;;15.81;98.29;101337.59;4913771;29;20438;-69
2022/10/30 01:51:20;;;;;;;27.70;20.13;;;15.70;99.90;;;15.54;100.00;101337.03;4930358;29;20423;-72
2022/10/30 01:54:00;;;;;;;26.93;19.90;;;15.40;99.90;;;15.42;100.00;101333.31;4932140;29;20527;-70
2022/10/30 01:56:43;;;;;;;35.53;22.43;;;15.40;1.00;;;14.88;100.00;101321.16;4933188;29;20418;-69
2022/10/30 01:59:19;;;;;;;27.57;20.70;;;15.10;1.00;;;15.35;100.00;101318.88;4947516;28;20419;-70
2022/10/30 02:01:49;;;;;;;25.87;19.83;;;15.00;1.00;;;15.20;100.00;101317.34;4931859;29;20486;-70
2022/10/30 02:04:19;;;;;;;24.90;20.77;;;15.00;1.00;;;15.44;100.00;101323.03;4932531;29;20431;-70
2022/10/30 02:06:51;;;;;;;26.87;19.37;;;15.10;1.00;;;16.02;99.57;101316.13;4912644;29;20598;-70
2022/10/30 02:09:21;;;;;;;35.47;21.23;;;15.50;2.40;;;15.76;99.33;101319.16;4921726;29;20637;-71
2022/10/30 02:11:53;;;;;;;26.20;20.73;;;15.50;1.00;;;15.71;100.00;101316.28;4933030;29;20630;-70
2022/10/30 02:14:28;;;;;;;22.53;19.83;;;15.40;1.00;;;15.89;99.55;101313.56;4931734;29;20777;-71
2022/10/30 02:17:03;;;;;;;24.50;18.90;;;15.50;1.00;;;16.53;96.25;101312.97;4925112;29;20462;-71
2022/10/30 02:19:31;;;;;;;26.57;21.40;;;15.80;1.00;;;16.26;95.57;101310.81;4944405;29;20539;-70
2022/10/30 02:22:05;;;;;;;32.50;20.93;;;15.90;99.90;;;16.46;94.39;101314.09;4944635;29;20843;-70
2022/10/30 02:24:34;;;;;;;29.83;20.17;;;16.00;99.90;;;16.14;95.40;101315.38;4929896;29;20575;-70
2022/10/30 02:27:03;;;;;;;28.80;20.87;;;15.90;64.40;;;16.30;94.23;101307.41;4933324;29;21001;-70
2022/10/30 02:29:32;;;;;;;27.97;20.77;;;16.10;19.50;;;16.62;93.41;101318.97;4931723;29;20415;-70
2022/10/30 02:32:01;;;;;;;26.90;21.20;;;16.20;1.00;;;16.43;93.08;101314.56;4932895;29;20399;-70
2022/10/30 02:34:30;;;;;;;26.37;19.90;;;16.20;1.00;;;15.86;94.46;101311.28;4932563;29;20430;-70
2022/10/30 02:36:59;;;;;;;29.97;22.60;;;15.90;1.00;;;15.44;96.79;101309.38;4933384;29;20508;-70
2022/10/30 02:39:30;;;;;;;28.73;20.57;;;15.60;1.00;;;15.71;98.57;101305.38;4947293;29;20432;-70
2022/10/30 02:42:00;;;;;;;23.93;19.97;;;15.50;99.90;;;15.31;100.00;101302.16;4931380;29;20469;-76
2022/10/30 02:44:29;;;;;;;22.47;17.77;;;15.30;99.90;;;15.88;98.96;101292.78;4947708;28;20420;-70
2022/10/30 02:46:58;;;;;;;27.57;19.33;;;15.50;1.00;;;15.82;97.86;101301.06;4932659;29;20448;-70
2022/10/30 02:49:27;;;;;;;21.37;18.97;;;15.50;99.90;;;16.09;96.00;101292.31;4931228;29;20423;-70
2022/10/30 02:51:56;;;;;;;28.03;19.47;;;15.70;99.90;;;15.98;96.24;101294.97;4932129;29;20429;-70
2022/10/30 02:54:25;;;;;;;23.70;17.03;;;15.70;99.90;;;16.27;95.61;101287.88;4931570;29;20471;-70
2022/10/30 02:56:55;;;;;;;21.83;18.67;;;15.80;99.20;;;15.70;95.33;101300.97;4931224;29;20464;-70
2022/10/30 02:59:24;;;;;;;27.53;20.30;;;15.60;1.00;;;15.73;97.65;101289.63;4931643;29;20452;-70
2022/10/30 03:01:52;;;;;;;30.10;18.80;;;15.50;99.90;;;15.73;99.25;101294.22;4946062;29;20447;-70
2022/10/30 03:04:21;;;;;;;23.10;19.23;;;15.40;1.00;;;15.83;97.01;101300.00;4947519;29;20456;-70
2022/10/30 03:06:50;;;;;;;32.50;18.13;;;15.50;1.00;;;15.70;96.90;101306.41;4950304;29;20518;-70
2022/10/30 03:09:19;;;;;;;24.50;17.40;;;15.50;99.90;;;15.51;98.84;101305.56;4933055;29;20959;-69
2022/10/30 03:11:47;;;;;;;25.70;19.17;;;15.30;1.00;;;15.75;96.14;101308.47;4931793;29;20404;-70
2022/10/30 03:14:18;;;;;;;27.63;18.60;;;15.60;1.00;;;15.45;97.66;101311.88;4931847;29;20778;-69
2022/10/30 03:16:47;;;;;;;20.93;16.87;;;15.50;1.00;;;15.35;98.96;101313.44;4932532;29;20492;-69
2022/10/30 03:19:17;;;;;;;21.07;16.93;;;15.30;1.00;;;15.21;99.27;101316.28;4931037;29;20841;-69
2022/10/30 03:21:47;;;;;;;24.23;17.73;;;15.20;1.00;;;15.38;99.95;101310.28;4930259;29;20907;-69
2022/10/30 03:24:16;;;;;;;21.30;17.10;;;15.20;99.90;;;15.49;99.60;101307.63;4932723;29;20424;-70
2022/10/30 03:26:46;;;;;;;21.93;16.00;;;15.20;99.90;;;15.18;100.00;101303.09;4930398;29;20439;-69
2022/10/30 03:29:16;;;;;;;20.83;16.90;;;15.10;1.00;;;15.48;99.79;101291.50;4931879;29;20407;-70
2022/10/30 03:31:45;;;;;;;20.27;16.30;;;15.20;99.90;;;15.57;99.52;101285.56;4936971;29;20782;-70
2022/10/30 03:34:19;;;;;;;19.93;14.87;;;15.30;99.90;;;15.61;99.20;101294.13;4931145;29;20496;-69
2022/10/30 03:36:48;;;;;;;23.70;15.73;;;15.30;44.50;;;15.67;98.94;101293.25;4931744;29;20459;-69
2022/10/30 03:39:16;;;;;;;23.07;16.70;;;15.30;53.10;;;15.79;97.03;101296.88;4932288;29;20436;-69
2022/10/30 03:41:46;;;;;;;21.53;18.27;;;15.50;1.00;;;16.00;95.58;101282.78;4930862;29;20491;-70
2022/10/30 03:44:16;;;;;;;21.70;16.40;;;15.60;1.00;;;15.92;94.93;101290.44;4932333;29;20407;-69
2022/10/30 03:46:45;;;;;;;19.30;15.30;;;15.60;1.00;;;16.04;95.47;101283.97;4930710;29;20464;-70
2022/10/30 03:49:27;;;;;;;22.53;16.40;;;15.70;1.00;;;16.09;94.44;101275.09;4947768;29;20448;-70
2022/10/30 03:51:57;;;;;;;23.50;15.50;;;15.70;47.40;;;16.02;95.22;101268.91;4933171;29;20971;-70
2022/10/30 03:54:27;;;;;;;19.33;15.90;;;15.60;1.00;;;15.98;93.16;101273.13;4932570;29;20942;-70
2022/10/30 03:56:55;;;;;;;18.43;15.40;;;15.70;1.00;;;15.70;95.42;101264.66;4932881;29;20783;-69
2022/10/30 03:59:29;;;;;;;20.83;16.30;;;15.60;1.00;;;15.95;94.68;101279.06;4930868;29;20418;-70
2022/10/30 04:02:19;;;;;;;18.60;14.93;;;15.70;87.20;;;16.20;93.45;101281.69;4943162;29;20985;-69
2022/10/30 04:04:48;;;;;;;17.90;13.63;;;15.90;1.00;;;16.56;91.75;101288.97;4930044;29;20431;-69
2022/10/30 04:07:17;;;;;;;21.23;15.23;;;16.10;1.00;;;16.22;91.34;101274.94;4930420;29;20419;-69
2022/10/30 04:09:52;;;;;;;20.63;15.47;;;16.00;99.90;;;15.95;93.44;101262.69;4930135;29;20505;-69
2022/10/30 04:12:21;;;;;;;17.10;14.17;;;15.90;99.90;;;16.36;92.68;101281.06;4930090;29;20426;-69
2022/10/30 04:14:53;;;;;;;16.90;14.23;;;16.00;99.90;;;16.17;91.86;101291.16;4930484;29;20547;-69
2022/10/30 04:17:21;;;;;;;19.93;15.23;;;16.00;1.00;;;16.23;91.31;101286.69;4931509;29;20425;-69
2022/10/30 04:19:50;;;;;;;20.47;15.37;;;16.00;36.10;;;15.69;93.35;101287.53;4918470;29;20476;-69
2022/10/30 04:22:19;;;;;;;24.33;17.07;;;15.70;93.20;;;15.93;93.60;101297.56;4930032;29;20475;-71
2022/10/30 04:24:47;;;;;;;19.50;14.73;;;15.70;86.70;;;16.44;92.84;101305.31;4935182;29;20808;-69
2022/10/30 04:27:18;;;;;;;19.83;15.10;;;15.80;58.70;;;17.00;87.92;101306.84;4933339;29;20805;-69
2022/10/30 04:29:47;;;;;;;16.77;14.27;;;16.30;99.90;;;16.07;89.71;101310.00;4927949;29;20858;-70
2022/10/30 04:32:19;;;;;;;22.37;16.20;;;16.10;99.90;;;15.79;93.23;101321.44;4934780;29;20388;-69
2022/10/30 04:34:52;;;;;;;20.13;14.80;;;15.80;99.90;;;15.94;93.55;101308.25;4949776;29;20542;-70
2022/10/30 04:37:20;;;;;;;24.37;14.70;;;15.70;99.90;;;15.66;94.91;101302.47;4933604;29;20464;-70
2022/10/30 04:39:49;;;;;;;24.13;14.53;;;15.60;99.90;;;15.60;95.51;101304.22;4933628;29;20403;-70
2022/10/30 04:42:23;;;;;;;19.70;15.77;;;15.40;99.90;;;15.66;95.31;101313.38;4932922;29;20453;-69
2022/10/30 04:44:51;;;;;;;18.90;13.80;;;15.50;99.90;;;15.83;95.89;101313.66;4949401;29;20989;-70
2022/10/30 04:47:24;;;;;;;18.67;15.47;;;15.50;99.90;;;15.74;93.90;101315.81;4931537;29;20411;-70
2022/10/30 04:49:53;;;;;;;24.57;16.43;;;15.50;99.90;;;15.07;96.23;101292.91;4931005;29;20412;-70
2022/10/30 04:52:22;;;;;;;24.30;15.17;;;15.20;99.90;;;15.18;99.36;101294.94;4949223;29;20801;-70
2022/10/30 04:54:51;;;;;;;20.17;13.67;;;15.10;99.90;;;15.75;97.42;101295.66;4946317;29;20971;-70
2022/10/30 04:57:20;;;;;;;22.87;15.33;;;15.30;99.90;;;15.75;95.00;101287.47;4930102;29;20458;-70
2022/10/30 04:59:48;;;;;;;26.43;15.73;;;15.40;99.90;;;15.35;96.66;101291.63;4933971;29;20420;-70
2022/10/30 05:02:18;;;;;;;24.33;16.80;;;15.30;99.90;;;14.97;98.26;101289.84;4933042;29;20464;-69
2022/10/30 05:04:49;;;;;;;19.83;16.17;;;15.10;99.90;;;14.96;99.47;101284.63;4933411;29;20424;-70
2022/10/30 05:07:18;;;;;;;20.93;16.80;;;15.00;99.90;;;15.59;99.01;101290.78;4934433;29;20823;-69
2022/10/30 05:09:48;;;;;;;22.10;16.10;;;15.10;99.90;;;15.89;95.66;101286.25;4934302;29;20444;-69
2022/10/30 05:12:18;;;;;;;25.30;15.90;;;15.40;99.90;;;15.69;95.81;101282.06;4934296;29;20448;-71
2022/10/30 05:14:53;;;;;;;20.83;15.10;;;15.40;99.90;;;16.12;93.68;101285.56;4934636;29;20415;-70
2022/10/30 05:17:22;;;;;;;19.73;14.97;;;15.60;99.90;;;16.16;93.03;101285.94;4947327;29;20428;-70
2022/10/30 05:19:53;;;;;;;16.30;13.70;;;15.70;99.90;;;16.13;93.26;101264.56;4926844;29;20451;-70
2022/10/30 05:22:21;;;;;;;24.47;15.97;;;15.80;99.90;;;16.40;90.89;101269.44;4935844;29;20441;-69
2022/10/30 05:24:50;;;;;;;21.60;14.20;;;16.00;99.90;;;16.31;92.28;101264.53;4934768;29;20844;-68
2022/10/30 05:27:19;;;;;;;20.53;15.70;;;16.00;99.90;;;16.09;91.18;101265.03;4934546;29;20439;-70
2022/10/30 05:29:47;;;;;;;23.63;16.30;;;15.90;99.90;;;15.91;90.77;101256.84;4935223;29;20418;-70
2022/10/30 05:32:16;;;;;;;20.73;14.87;;;15.80;99.90;;;15.96;93.31;101247.97;4942214;29;20612;-70
2022/10/30 05:34:48;;;;;;;18.63;13.03;;;15.70;99.90;;;16.00;91.89;101244.56;4933295;29;20463;-70
2022/10/30 05:37:22;;;;;;;19.73;13.70;;;15.80;99.90;;;15.98;92.94;101245.84;4939174;29;20437;-70
2022/10/30 05:39:51;;;;;;;22.10;15.50;;;15.70;99.90;;;16.11;91.01;101242.97;4940916;29;20523;-70
2022/10/30 05:42:26;;;;;;;20.03;13.63;;;15.80;99.90;;;15.89;92.22;101248.06;4935583;29;20797;-72
2022/10/30 05:44:57;;;;;;;23.73;13.63;;;15.70;99.90;;;16.15;89.43;101260.53;4934774;29;20480;-70
2022/10/30 05:47:31;;;;;;;15.90;14.30;;;15.90;99.90;;;15.98;88.96;101279.44;4942207;29;20436;-70
2022/10/30 05:50:00;;;;;;;16.83;14.13;;;15.90;99.90;;;16.29;89.81;101274.84;4957236;29;20441;-71
2022/10/30 05:52:31;;;;;;;22.43;14.47;;;16.00;99.90;;;15.64;90.09;101250.84;4933993;29;20474;-69
2022/10/30 05:55:00;;;;;;;20.43;14.30;;;15.70;99.90;;;15.52;92.71;101254.56;4945940;29;20420;-69
2022/10/30 05:57:41;;;;;;;15.73;12.60;;;15.50;99.90;;;15.79;91.60;101258.66;4948261;29;20427;-70
2022/10/30 06:00:12;;;;;;;16.83;14.03;;;15.60;99.90;;;16.22;90.16;101257.72;4931196;29;20993;-70
2022/10/30 06:02:44;;;;;;;25.30;13.93;;;15.70;99.90;;;16.09;88.90;101251.38;4934198;29;20453;-69
2022/10/30 06:05:15;;;;;;;16.13;14.43;;;15.90;99.90;;;16.33;89.88;101249.56;4929235;29;20474;-71
2022/10/30 06:07:45;;;;;;;16.60;13.00;;;16.00;99.90;;;17.00;85.77;101244.78;4930503;29;20489;-70
2022/10/30 06:10:14;;;;;;;17.40;14.37;;;16.40;99.90;;;17.06;85.38;101251.22;4926047;29;20444;-69
2022/10/30 06:13:06;;;;;;;14.40;12.10;;;16.60;99.90;;;16.41;86.49;101259.38;4926408;29;20451;-70
2022/10/30 06:15:47;;;;;;;17.83;12.63;;;16.30;99.90;;;16.76;85.28;101257.59;4936207;29;20838;-69
2022/10/30 06:18:16;;;;;;;18.53;13.63;;;16.50;99.90;;;16.02;86.25;101241.63;4927228;29;20450;-69
2022/10/30 06:20:47;;;;;;;19.47;14.20;;;16.10;99.90;;;16.05;87.40;101241.97;4930717;29;20434;-69
2022/10/30 06:23:47;;;;;;;16.07;12.30;;;15.90;99.90;;;16.29;87.95;101244.81;4932541;29;20543;-69
2022/10/30 06:26:49;;;;;;;17.37;14.40;;;16.00;99.90;;;15.78;88.38;101229.69;4933950;29;20605;-70
2022/10/30 06:29:18;;;;;;;29.07;14.47;;;15.80;99.90;;;15.62;89.21;101233.06;4924700;29;20951;-70
2022/10/30 06:31:47;;;;;;;22.40;14.20;;;15.60;99.90;;;15.54;90.15;101238.81;4931722;29;20462;-70
2022/10/30 06:34:17;;;;;;;14.77;11.93;;;15.40;99.90;;;15.74;90.88;101236.69;4931227;29;20886;-69
2022/10/30 06:36:45;;;;;;;25.90;13.10;;;15.50;99.90;;;15.74;90.92;101247.59;4931239;29;20442;-69
2022/10/30 06:39:16;;;;;;;22.73;12.83;;;15.50;99.90;;;15.74;90.11;101241.31;4945852;29;20821;-68
2022/10/30 06:41:58;;;;;;;15.57;12.67;;;15.50;99.90;;;15.47;90.05;101244.31;4931173;29;20601;-70
2022/10/30 06:44:53;;;;;;;18.63;12.47;;;15.40;99.90;;;15.52;90.11;101249.13;4922948;29;20495;-70
2022/10/30 06:47:22;;;;;;;19.80;13.33;;;15.40;99.90;;;15.39;91.18;101244.63;4931469;29;20462;-70
2022/10/30 06:49:50;;;;;;;23.87;14.70;;;15.40;99.90;;;15.37;91.16;101234.97;4932444;29;20447;-69
2022/10/30 06:52:21;;;;;;;18.50;13.10;;;15.30;99.90;;;15.83;91.46;101238.03;4947269;29;20839;-69
2022/10/30 06:54:54;;;;;;;17.77;12.37;;;15.40;99.90;;;16.95;84.68;101245.50;4947561;29;20423;-69
2022/10/30 06:58:00;;;;;;;19.63;14.23;;;16.20;99.90;;;17.03;83.21;101260.75;4919004;29;20464;-70
2022/10/30 07:00:49;;;;;;;16.47;11.03;;;16.60;99.90;;;16.77;84.02;101267.44;4911931;29;20545;-69
2022/10/30 07:03:36;;;;;;;13.63;11.67;;;16.60;99.90;;;17.38;82.20;101274.41;4932412;29;20485;-69
2022/10/30 07:06:05;;;;;;;16.33;12.60;;;16.80;99.90;;;17.24;81.19;101283.94;4937157;29;21003;-70
2022/10/30 07:08:34;;;;;;;22.73;12.33;;;16.90;99.90;;;17.35;80.61;101280.38;4931467;29;20518;-69
2022/10/30 07:11:05;;;;;;;15.53;12.20;;;17.00;99.90;;;17.14;81.12;101289.16;4931097;29;20504;-69
2022/10/30 07:13:44;;;;;;;15.87;12.40;;;16.90;99.90;;;17.05;81.17;101290.56;4932495;29;20440;-68
2022/10/30 07:16:39;;;;;;;13.73;11.67;;;16.70;99.90;;;16.65;82.03;101291.19;4921624;29;20479;-68
2022/10/30 07:19:16;;;;;;;14.87;12.07;;;16.50;99.90;;;16.58;83.90;101295.91;4942527;29;20438;-71
2022/10/30 07:21:45;;;;;;;25.33;13.63;;;16.40;99.90;;;16.27;84.52;101294.19;4931289;29;20527;-69
2022/10/30 07:24:14;;;;;;;18.60;11.53;;;16.20;99.90;;;16.27;84.57;101288.72;4944259;29;20488;-70
2022/10/30 07:27:07;;;;;;;21.87;13.73;;;16.10;99.90;;;16.27;85.24;101294.19;4905159;29;20478;-72
2022/10/30 07:29:44;;;;;;;17.97;11.27;;;16.10;99.90;;;16.24;85.32;101293.81;4947485;29;20894;-69
2022/10/30 07:32:26;;;;;;;16.57;12.40;;;16.10;99.90;;;16.59;84.18;101308.50;4932742;29;20463;-71
2022/10/30 07:35:15;;;;;;;20.20;13.23;;;16.20;99.90;;;16.81;83.05;101301.44;4930505;29;21074;-69
2022/10/30 07:38:13;;;;;;;20.83;12.73;;;16.40;99.90;;;17.03;81.08;101309.97;4931020;29;20468;-69
2022/10/30 07:40:54;;;;;;;17.30;10.60;;;16.60;99.90;;;17.00;81.61;101304.94;4946850;29;20522;-71
2022/10/30 07:43:42;;;;;;;18.50;12.70;;;16.70;99.90;;;17.16;81.07;101308.91;4931888;29;20461;-69
2022/10/30 07:46:31;;;;;;;12.80;11.07;;;16.70;99.90;;;17.46;80.43;101312.38;4921034;29;20500;-68
2022/10/30 07:49:11;;;;;;;15.23;11.17;;;17.00;99.90;;;17.22;79.10;101313.44;4930664;29;20492;-69
2022/10/30 07:51:49;;;;;;;21.23;12.93;;;16.90;99.90;;;17.29;80.44;101309.50;4930568;29;20478;-70
2022/10/30 07:54:18;;;;;;;12.10;10.63;;;17.00;99.90;;;17.52;79.25;101310.59;4930268;29;20460;-71
2022/10/30 07:56:48;;;;;;;17.50;11.00;;;17.10;99.90;;;17.28;78.99;101312.50;4948131;28;20576;-69
2022/10/30 07:59:37;;;;;;;15.40;11.40;;;17.00;99.90;;;17.29;78.83;101303.19;4936049;29;20965;-71
2022/10/30 08:02:24;;;;;;;16.83;11.43;;;17.10;99.90;;;17.51;79.92;101301.56;4931643;29;20501;-70
2022/10/30 08:05:11;;;;;;;14.77;11.43;;;17.10;99.90;;;17.53;79.30;101304.03;4935270;29;20791;-71
2022/10/30 08:07:58;;;;;;;15.70;10.60;;;17.20;99.90;;;17.57;77.44;101305.25;4929393;29;20414;-69
2022/10/30 08:10:28;;;;;;;16.53;12.43;;;17.20;99.90;;;17.65;77.61;101300.28;4946720;29;20523;-71
2022/10/30 08:12:57;;;;;;;17.27;10.60;;;17.30;99.90;;;17.82;76.79;101305.84;4921793;29;20845;-70
2022/10/30 08:15:27;;;;;;;13.23;10.70;;;17.40;99.90;;;17.78;77.06;101305.50;4928074;29;20791;-69
2022/10/30 08:17:56;;;;;;;14.20;10.27;;;17.50;99.90;;;17.70;76.26;101311.34;4935572;29;20428;-70
2022/10/30 08:20:26;;;;;;;11.83;10.60;;;17.50;99.90;;;17.66;76.62;101310.16;4943742;29;20479;-69
2022/10/30 08:22:56;;;;;;;15.97;12.03;;;17.40;99.90;;;17.81;77.03;101313.22;4933618;29;20451;-70
2022/10/30 08:25:30;;;;;;;21.40;11.93;;;17.40;99.90;;;17.74;77.09;101301.56;4934004;29;20442;-68
2022/10/30 08:28:01;;;;;;;21.13;13.70;;;17.40;99.90;;;17.68;76.76;101307.16;4932054;29;20967;-69
2022/10/30 08:30:37;;;;;;;13.87;10.50;;;17.30;99.90;;;17.82;77.07;101303.09;4927558;29;20431;-71
2022/10/30 08:33:13;;;;;;;13.73;11.80;;;17.40;99.90;;;17.66;76.28;101310.16;4931065;29;20519;-69
2022/10/30 08:36:13;;;;;;;15.33;10.67;;;17.30;99.90;;;17.66;77.18;101301.94;5032811;23;20520;-71
2022/10/30 08:38:42;;;;;;;16.63;11.70;;;17.40;99.90;;;17.84;77.34;101311.09;4926600;29;20934;-70
2022/10/30 08:41:16;;;;;;;14.80;11.07;;;17.50;99.90;;;17.87;76.44;101307.84;4934005;29;20452;-69
2022/10/30 08:43:47;;;;;;;22.00;11.60;;;17.50;99.90;;;17.84;76.54;101319.28;4941258;29;20480;-71
2022/10/30 08:46:17;;;;;;;16.27;11.10;;;17.50;99.90;;;17.80;76.09;101311.56;4916600;29;20524;-69
2022/10/30 08:48:46;;;;;;;14.63;10.20;;;17.50;99.90;;;17.95;76.61;101316.56;4946190;29;20930;-70
2022/10/30 08:51:15;;;;;;;17.33;12.67;;;17.60;99.90;;;17.85;76.15;101313.59;4947925;29;20539;-71
2022/10/30 08:53:49;;;;;;;19.03;11.47;;;17.60;99.90;;;17.94;76.65;101311.31;4924547;29;20416;-68
2022/10/30 08:56:19;;;;;;;18.50;11.93;;;17.60;99.90;;;17.91;76.03;101306.31;4934409;29;20471;-70
2022/10/30 08:58:57;;;;;;;17.20;11.17;;;17.70;99.90;;;18.21;75.28;101304.22;4939149;29;20447;-68
2022/10/30 09:01:28;;;;;;;13.00;10.60;;;17.80;99.90;;;18.55;72.70;101321.63;4947359;29;20767;-70
2022/10/30 09:04:26;;;;;;;20.40;10.67;;;18.10;99.90;;;18.73;71.72;101315.16;4930952;29;20434;-69
2022/10/30 09:06:54;;;;;;;20.97;13.23;;;18.20;99.90;;;18.79;71.11;101312.22;4920453;29;20448;-71
2022/10/30 09:09:46;;;;;;;13.50;10.77;;;18.30;99.90;;;19.08;69.50;101313.03;4914882;29;20420;-69
2022/10/30 09:12:16;;;;;;;15.77;10.07;;;18.50;99.90;;;19.41;68.73;101324.00;4930345;29;20540;-70
2022/10/30 09:14:47;;;;;;;24.40;11.80;;;18.80;99.90;;;19.37;67.69;101317.34;4930371;29;20758;-71
2022/10/30 09:17:17;;;;;;;17.80;10.07;;;18.80;99.90;;;19.60;67.73;101312.81;4925548;29;20447;-70
2022/10/30 09:19:47;;;;;;;16.13;11.10;;;18.90;99.90;;;19.74;67.22;101308.63;4925577;29;20950;-70
2022/10/30 09:22:34;;;;;;;18.27;11.70;;;19.10;99.90;;;19.86;66.61;101298.34;4933198;29;20528;-70
2022/10/30 09:25:04;;;;;;;16.53;9.87;;;19.30;99.90;;;19.96;66.42;101301.22;4948967;29;20843;-71
2022/10/30 09:27:48;;;;;;;11.47;9.10;;;19.40;99.90;;;19.88;64.88;101307.16;4933107;29;20457;-70
2022/10/30 09:30:19;;;;;;;14.97;10.10;;;19.50;99.90;;;19.66;65.08;101298.06;4934793;29;20517;-70
2022/10/30 09:32:57;;;;;;;13.67;9.90;;;19.30;99.90;;;19.60;65.86;101304.56;4947009;29;20449;-71
2022/10/30 09:35:52;;;;;;;12.00;9.90;;;19.20;99.90;;;19.67;65.95;101299.72;4913562;29;20569;-71
2022/10/30 09:38:21;;;;;;;17.17;9.90;;;19.30;99.90;;;19.74;65.41;101294.88;4913980;29;20536;-70
2022/10/30 09:41:14;;;;;;;9.80;8.70;;;19.30;99.90;;;19.75;65.31;101302.84;4922005;29;20451;-69
2022/10/30 09:44:01;;;;;;;12.13;9.03;;;19.40;99.90;;;19.83;65.40;101294.19;4932672;29;20872;-70
2022/10/30 09:46:53;;;;;;;17.33;11.07;;;19.40;99.90;;;20.04;64.61;101288.97;4922118;29;20461;-70
2022/10/30 09:49:52;;;;;;;12.20;9.10;;;19.60;99.90;;;20.11;64.58;101287.69;4946155;29;20450;-71
2022/10/30 09:52:32;;;;;;;14.10;9.53;;;19.70;99.50;;;20.16;63.18;101287.75;4931201;29;20874;-70
2022/10/30 09:55:21;;;;;;;14.63;9.33;;;19.80;97.60;;;19.96;62.63;101279.25;4934172;29;20858;-71
2022/10/30 09:58:02;;;;;;;10.37;7.77;;;19.70;97.60;;;20.12;63.38;101286.63;4933709;29;20444;-70
2022/10/30 10:04:42;;;;;;;14.50;8.30;;;19.70;96.70;;;20.25;62.10;101301.88;4933720;29;20476;-70
2022/10/30 10:07:22;;;;;;;8.67;7.07;;;19.90;95.80;;;20.22;61.22;101297.72;4931784;29;20460;-70
2022/10/30 10:10:11;;;;;;;12.40;8.43;;;19.90;93.80;;;20.34;61.07;101305.84;4917525;29;20453;-70
2022/10/30 10:12:52;;;;;;;20.77;9.33;;;20.00;93.50;;;20.25;60.05;101308.19;4938013;29;20918;-70
2022/10/30 10:15:48;;;;;;;11.87;8.93;;;20.00;91.80;;;20.12;61.26;101297.59;4923219;29;20505;-70
2022/10/30 10:18:25;;;;;;;7.27;6.57;;;19.90;91.70;;;20.26;61.81;101292.53;4936341;29;20432;-69
2022/10/30 10:21:06;;;;;;;9.80;7.47;;;20.00;93.10;;;20.53;60.76;101303.59;4941051;29;20448;-69
2022/10/30 10:23:47;;;;;;;13.57;7.30;;;20.10;92.90;;;20.57;60.80;101296.50;4925287;29;20440;-70
2022/10/30 10:26:29;;;;;;;10.47;7.70;;;20.20;93.10;;;20.61;59.97;101305.91;4926738;29;20470;-70
2022/10/30 10:29:24;;;;;;;16.50;8.07;;;20.30;90.00;;;20.36;60.44;101301.78;4940135;29;20428;-70
2022/10/30 10:32:15;;;;;;;8.70;6.97;;;20.10;88.60;;;20.31;60.50;101312.72;4926493;29;20611;-71
2022/10/30 10:35:20;;;;;;;20.10;9.60;;;20.10;90.20;;;20.29;60.98;101314.84;4933614;29;20439;-70
2022/10/30 10:38:04;;;;;;;9.70;7.40;;;20.00;91.00;;;20.39;60.56;101317.75;4929978;29;20426;-71